sensor_id;sensor_type;location;lat;lon;timestamp;pressure;altitude;pressure_sealevel;temperature;humidity
46347;BME280;32057;47.830;19.046;2023-06-10T00:02:28;99798.84;;;15.25;100.00
46347;BME280;32057;47.830;19.046;2023-06-10T00:04:53;99803.31;;;15.12;100.00
46347;BME280;32057;47.830;19.046;2023-06-10T00:07:19;99798.97;;;15.10;100.00
46347;BME280;32057;47.830;19.046;2023-06-10T00:09:44;99799.81;;;15.13;100.00
46347;BME280;32057;47.830;19.046;2023-06-10T00:12:10;99792.84;;;15.14;100.00
46347;BME280;32057;47.830;19.046;2023-06-10T00:14:37;99792.84;;;15.12;100.00
46347;BME280;32057;47.830;19.046;2023-06-10T00:17:03;99796.28;;;15.18;100.00
46347;BME280;32057;47.830;19.046;2023-06-10T00:19:28;99791.94;;;15.17;100.00
46347;BME280;32057;47.830;19.046;2023-06-10T00:21:57;99791.94;;;15.15;100.00
46347;BME280;32057;47.830;19.046;2023-06-10T00:24:22;99791.06;;;15.13;100.00
46347;BME280;32057;47.830;19.046;2023-06-10T00:26:48;99796.31;;;15.11;100.00
46347;BME280;32057;47.830;19.046;2023-06-10T00:29:13;99789.34;;;15.10;100.00
46347;BME280;32057;47.830;19.046;2023-06-10T00:31:39;99787.59;;;15.12;100.00
46347;BME280;32057;47.830;19.046;2023-06-10T00:34:06;99781.44;;;15.15;100.00
46347;BME280;32057;47.830;19.046;2023-06-10T00:36:32;99777.00;;;15.28;100.00
46347;BME280;32057;47.830;19.046;2023-06-10T00:38:58;99781.22;;;15.46;100.00
46347;BME280;32057;47.830;19.046;2023-06-10T00:41:23;99769.78;;;15.53;100.00
46347;BME280;32057;47.830;19.046;2023-06-10T00:43:48;99777.56;;;15.64;100.00
46347;BME280;32057;47.830;19.046;2023-06-10T00:46:14;99781.91;;;15.68;100.00
46347;BME280;32057;47.830;19.046;2023-06-10T00:48:42;99783.63;;;15.69;100.00
46347;BME280;32057;47.830;19.046;2023-06-10T00:51:08;99781.00;;;15.69;100.00
46347;BME280;32057;47.830;19.046;2023-06-10T00:53:39;99784.50;;;15.69;100.00
46347;BME280;32057;47.830;19.046;2023-06-10T00:56:06;99786.25;;;15.70;100.00
46347;BME280;32057;47.830;19.046;2023-06-10T00:58:32;99779.28;;;15.72;100.00
46347;BME280;32057;47.830;19.046;2023-06-10T01:00:57;99781.00;;;15.70;100.00
46347;BME280;32057;47.830;19.046;2023-06-10T01:03:23;99783.63;;;15.67;100.00
46347;BME280;32057;47.830;19.046;2023-06-10T01:05:54;99783.63;;;15.69;100.00
46347;BME280;32057;47.830;19.046;2023-06-10T01:08:54;99783.63;;;15.67;100.00
46347;BME280;32057;47.830;19.046;2023-06-10T01:11:27;99781.06;;;15.64;100.00
46347;BME280;32057;47.830;19.046;2023-06-10T01:13:55;99786.31;;;15.64;100.00
46347;BME280;32057;47.830;19.046;2023-06-10T01:16:21;99784.59;;;15.62;100.00
46347;BME280;32057;47.830;19.046;2023-06-10T01:18:47;99782.84;;;15.62;100.00
46347;BME280;32057;47.830;19.046;2023-06-10T01:21:19;99784.53;;;15.66;100.00
46347;BME280;32057;47.830;19.046;2023-06-10T01:23:45;99788.03;;;15.65;100.00
46347;BME280;32057;47.830;19.046;2023-06-10T01:26:11;99779.31;;;15.63;100.00
46347;BME280;32057;47.830;19.046;2023-06-10T01:28:49;99783.69;;;15.64;100.00
46347;BME280;32057;47.830;19.046;2023-06-10T01:31:32;99779.34;;;15.59;100.00
46347;BME280;32057;47.830;19.046;2023-06-10T01:34:05;99774.22;;;15.48;100.00
46347;BME280;32057;47.830;19.046;2023-06-10T01:36:33;99784.72;;;15.48;100.00
46347;BME280;32057;47.830;19.046;2023-06-10T01:39:00;99782.06;;;15.49;100.00
46347;BME280;32057;47.830;19.046;2023-06-10T01:41:26;99786.50;;;15.41;100.00
46347;BME280;32057;47.830;19.046;2023-06-10T01:43:51;99782.25;;;15.28;100.00
46347;BME280;32057;47.830;19.046;2023-06-10T01:46:17;99791.94;;;15.20;100.00
46347;BME280;32057;47.830;19.046;2023-06-10T01:48:46;99784.84;;;15.29;100.00
46347;BME280;32057;47.830;19.046;2023-06-10T01:51:12;99784.88;;;15.26;100.00
46347;BME280;32057;47.830;19.046;2023-06-10T01:53:37;99787.50;;;15.25;100.00
46347;BME280;32057;47.830;19.046;2023-06-10T01:56:03;99795.41;;;15.20;100.00
46347;BME280;32057;47.830;19.046;2023-06-10T01:58:28;99787.53;;;15.22;100.00
46347;BME280;32057;47.830;19.046;2023-06-10T02:00:54;99796.25;;;15.24;100.00
46347;BME280;32057;47.830;19.046;2023-06-10T02:03:19;99790.13;;;15.23;100.00
46347;BME280;32057;47.830;19.046;2023-06-10T02:05:45;99788.38;;;15.25;100.00
46347;BME280;32057;47.830;19.046;2023-06-10T02:08:10;99786.59;;;15.29;100.00
46347;BME280;32057;47.830;19.046;2023-06-10T02:10:35;99790.03;;;15.36;100.00
46347;BME280;32057;47.830;19.046;2023-06-10T02:13:01;99785.63;;;15.42;100.00
46347;BME280;32057;47.830;19.046;2023-06-10T02:15:26;99790.78;;;15.51;100.00
46347;BME280;32057;47.830;19.046;2023-06-10T02:17:52;99787.25;;;15.56;100.00
46347;BME280;32057;47.830;19.046;2023-06-10T02:20:17;99788.94;;;15.61;100.00
46347;BME280;32057;47.830;19.046;2023-06-10T02:22:43;99792.41;;;15.65;100.00
46347;BME280;32057;47.830;19.046;2023-06-10T02:25:09;99795.88;;;15.70;100.00
46347;BME280;32057;47.830;19.046;2023-06-10T02:27:34;99797.59;;;15.71;100.00
46347;BME280;32057;47.830;19.046;2023-06-10T02:29:59;99788.88;;;15.70;100.00
46347;BME280;32057;47.830;19.046;2023-06-10T02:32:25;99789.75;;;15.69;100.00
46347;BME280;32057;47.830;19.046;2023-06-10T02:34:50;99795.00;;;15.69;100.00
46347;BME280;32057;47.830;19.046;2023-06-10T02:37:16;99785.41;;;15.68;100.00
46347;BME280;32057;47.830;19.046;2023-06-10T02:39:41;99787.13;;;15.69;100.00
46347;BME280;32057;47.830;19.046;2023-06-10T02:42:07;99793.28;;;15.65;100.00
46347;BME280;32057;47.830;19.046;2023-06-10T02:44:33;99790.72;;;15.61;100.00
46347;BME280;32057;47.830;19.046;2023-06-10T02:46:58;99786.38;;;15.55;100.00
46347;BME280;32057;47.830;19.046;2023-06-10T02:49:24;99794.25;;;15.57;100.00
46347;BME280;32057;47.830;19.046;2023-06-10T02:51:52;99797.72;;;15.60;100.00
46347;BME280;32057;47.830;19.046;2023-06-10T02:54:21;99793.34;;;15.59;100.00
46347;BME280;32057;47.830;19.046;2023-06-10T02:56:47;99797.72;;;15.62;100.00
46347;BME280;32057;47.830;19.046;2023-06-10T02:59:13;99791.56;;;15.63;100.00
46347;BME280;32057;47.830;19.046;2023-06-10T03:01:39;99800.34;;;15.60;100.00
46347;BME280;32057;47.830;19.046;2023-06-10T03:04:05;99795.97;;;15.59;100.00
46347;BME280;32057;47.830;19.046;2023-06-10T03:06:30;99801.25;;;15.56;100.00
46347;BME280;32057;47.830;19.046;2023-06-10T03:08:59;99803.06;;;15.48;100.00
46347;BME280;32057;47.830;19.046;2023-06-10T03:11:25;99800.47;;;15.43;100.00
46347;BME280;32057;47.830;19.046;2023-06-10T03:13:51;99796.97;;;15.46;100.00
46347;BME280;32057;47.830;19.046;2023-06-10T03:16:17;99801.34;;;15.41;100.00
46347;BME280;32057;47.830;19.046;2023-06-10T03:18:43;99803.06;;;15.46;100.00
46347;BME280;32057;47.830;19.046;2023-06-10T03:21:09;99801.31;;;15.47;100.00
46347;BME280;32057;47.830;19.046;2023-06-10T03:23:34;99812.66;;;15.49;100.00
46347;BME280;32057;47.830;19.046;2023-06-10T03:26:00;99809.19;;;15.45;100.00
46347;BME280;32057;47.830;19.046;2023-06-10T03:28:25;99808.38;;;15.37;100.00
46347;BME280;32057;47.830;19.046;2023-06-10T03:30:51;99810.13;;;15.40;100.00
46347;BME280;32057;47.830;19.046;2023-06-10T03:33:17;99811.78;;;15.47;100.00
46347;BME280;32057;47.830;19.046;2023-06-10T03:35:42;99811.78;;;15.50;100.00
46347;BME280;32057;47.830;19.046;2023-06-10T03:38:07;99811.78;;;15.48;100.00
46347;BME280;32057;47.830;19.046;2023-06-10T03:40:33;99810.13;;;15.38;100.00
46347;BME280;32057;47.830;19.046;2023-06-10T03:42:58;99811.81;;;15.45;100.00
46347;BME280;32057;47.830;19.046;2023-06-10T03:45:24;99820.47;;;15.53;100.00
46347;BME280;32057;47.830;19.046;2023-06-10T03:47:50;99821.31;;;15.60;100.00
46347;BME280;32057;47.830;19.046;2023-06-10T03:50:15;99820.44;;;15.60;100.00
46347;BME280;32057;47.830;19.046;2023-06-10T03:52:41;99819.56;;;15.59;100.00
46347;BME280;32057;47.830;19.046;2023-06-10T03:55:07;99821.25;;;15.66;100.00
46347;BME280;32057;47.830;19.046;2023-06-10T03:57:33;99820.34;;;15.72;100.00
46347;BME280;32057;47.830;19.046;2023-06-10T03:59:58;99821.19;;;15.79;100.00
46347;BME280;32057;47.830;19.046;2023-06-10T04:02:24;99815.94;;;15.79;100.00
46347;BME280;32057;47.830;19.046;2023-06-10T04:04:49;99816.84;;;15.78;100.00
46347;BME280;32057;47.830;19.046;2023-06-10T04:07:16;99815.00;;;15.84;100.00
46347;BME280;32057;47.830;19.046;2023-06-10T04:09:44;99811.41;;;15.91;100.00
46347;BME280;32057;47.830;19.046;2023-06-10T04:12:09;99808.78;;;15.96;100.00
46347;BME280;32057;47.830;19.046;2023-06-10T04:14:36;99805.22;;;16.02;100.00
46347;BME280;32057;47.830;19.046;2023-06-10T04:17:04;99814.81;;;16.03;100.00
46347;BME280;32057;47.830;19.046;2023-06-10T04:19:32;99816.53;;;16.07;100.00
46347;BME280;32057;47.830;19.046;2023-06-10T04:21:57;99820.84;;;16.12;100.00
46347;BME280;32057;47.830;19.046;2023-06-10T04:24:22;99822.56;;;16.17;100.00
46347;BME280;32057;47.830;19.046;2023-06-10T04:26:48;99817.28;;;16.20;100.00
46347;BME280;32057;47.830;19.046;2023-06-10T04:29:13;99815.47;;;16.25;100.00
46347;BME280;32057;47.830;19.046;2023-06-10T04:31:39;99815.44;;;16.28;100.00
46347;BME280;32057;47.830;19.046;2023-06-10T04:34:04;99805.81;;;16.27;100.00
46347;BME280;32057;47.830;19.046;2023-06-10T04:36:30;99820.63;;;16.31;100.00
46347;BME280;32057;47.830;19.046;2023-06-10T04:38:55;99812.75;;;16.34;100.00
46347;BME280;32057;47.830;19.046;2023-06-10T04:41:20;99813.59;;;16.35;100.00
46347;BME280;32057;47.830;19.046;2023-06-10T04:43:47;99812.75;;;16.32;100.00
46347;BME280;32057;47.830;19.046;2023-06-10T04:46:12;99808.38;;;16.33;100.00
46347;BME280;32057;47.830;19.046;2023-06-10T04:48:38;99813.59;;;16.35;100.00
46347;BME280;32057;47.830;19.046;2023-06-10T04:51:04;99803.88;;;16.43;100.00
46347;BME280;32057;47.830;19.046;2023-06-10T04:53:30;99796.72;;;16.56;100.00
46347;BME280;32057;47.830;19.046;2023-06-10T04:55:56;99795.72;;;16.66;100.00
46347;BME280;32057;47.830;19.046;2023-06-10T04:58:23;99793.84;;;16.76;100.00
46347;BME280;32057;47.830;19.046;2023-06-10T05:00:48;99799.00;;;16.83;100.00
46347;BME280;32057;47.830;19.046;2023-06-10T05:03:14;99790.13;;;16.92;100.00
46347;BME280;32057;47.830;19.046;2023-06-10T05:05:39;99799.63;;;17.01;100.00
46347;BME280;32057;47.830;19.046;2023-06-10T05:08:05;99792.59;;;17.04;100.00
46347;BME280;32057;47.830;19.046;2023-06-10T05:10:30;99793.41;;;17.08;100.00
46347;BME280;32057;47.830;19.046;2023-06-10T05:12:57;99795.97;;;17.11;100.00
46347;BME280;32057;47.830;19.046;2023-06-10T05:15:23;99798.59;;;17.12;100.00
46347;BME280;32057;47.830;19.046;2023-06-10T05:17:49;99802.97;;;17.14;100.00
46347;BME280;32057;47.830;19.046;2023-06-10T05:20:14;99800.28;;;17.15;100.00
46347;BME280;32057;47.830;19.046;2023-06-10T05:22:40;99802.06;;;17.16;100.00
46347;BME280;32057;47.830;19.046;2023-06-10T05:25:06;99802.97;;;17.14;100.00
46347;BME280;32057;47.830;19.046;2023-06-10T05:27:32;99804.63;;;17.19;100.00
46347;BME280;32057;47.830;19.046;2023-06-10T05:29:57;99801.88;;;17.25;100.00
46347;BME280;32057;47.830;19.046;2023-06-10T05:32:23;99799.09;;;17.36;100.00
46347;BME280;32057;47.830;19.046;2023-06-10T05:34:48;99805.97;;;17.46;100.00
46347;BME280;32057;47.830;19.046;2023-06-10T05:37:14;99801.34;;;17.59;100.00
46347;BME280;32057;47.830;19.046;2023-06-10T05:39:39;99800.34;;;17.68;100.00
46347;BME280;32057;47.830;19.046;2023-06-10T05:42:06;99799.28;;;17.78;100.00
46347;BME280;32057;47.830;19.046;2023-06-10T05:44:32;99794.91;;;17.77;100.00
46347;BME280;32057;47.830;19.046;2023-06-10T05:46:58;99804.47;;;17.81;100.00
46347;BME280;32057;47.830;19.046;2023-06-10T05:49:23;99806.16;;;17.87;100.00
46347;BME280;32057;47.830;19.046;2023-06-10T05:51:49;99814.03;;;17.88;100.00
46347;BME280;32057;47.830;19.046;2023-06-10T05:54:15;99813.19;;;17.88;100.00
46347;BME280;32057;47.830;19.046;2023-06-10T05:56:40;99817.59;;;17.87;100.00
46347;BME280;32057;47.830;19.046;2023-06-10T05:59:06;99821.97;;;17.87;100.00
46347;BME280;32057;47.830;19.046;2023-06-10T06:01:31;99815.84;;;17.85;100.00
46347;BME280;32057;47.830;19.046;2023-06-10T06:03:56;99819.31;;;17.87;100.00
46347;BME280;32057;47.830;19.046;2023-06-10T06:06:22;99816.66;;;17.90;100.00
46347;BME280;32057;47.830;19.046;2023-06-10T06:08:48;99813.06;;;17.94;100.00
46347;BME280;32057;47.830;19.046;2023-06-10T06:11:13;99814.72;;;18.00;100.00
46347;BME280;32057;47.830;19.046;2023-06-10T06:13:39;99805.78;;;18.08;100.00
46347;BME280;32057;47.830;19.046;2023-06-10T06:16:04;99807.44;;;18.14;100.00
46347;BME280;32057;47.830;19.046;2023-06-10T06:18:30;99810.81;;;18.19;100.00
46347;BME280;32057;47.830;19.046;2023-06-10T06:20:55;99815.91;;;18.30;100.00
46347;BME280;32057;47.830;19.046;2023-06-10T06:23:20;99818.47;;;18.33;100.00
46347;BME280;32057;47.830;19.046;2023-06-10T06:25:46;99814.91;;;18.36;100.00
46347;BME280;32057;47.830;19.046;2023-06-10T06:28:11;99819.09;;;18.46;100.00
46347;BME280;32057;47.830;19.046;2023-06-10T06:30:36;99816.34;;;18.52;100.00
46347;BME280;32057;47.830;19.046;2023-06-10T06:33:02;99818.94;;;18.54;100.00
46347;BME280;32057;47.830;19.046;2023-06-10T06:35:30;99816.22;;;18.58;100.00
46347;BME280;32057;47.830;19.046;2023-06-10T06:37:56;99813.47;;;18.63;100.00
46347;BME280;32057;47.830;19.046;2023-06-10T06:40:22;99813.34;;;18.69;100.00
46347;BME280;32057;47.830;19.046;2023-06-10T06:42:47;99820.38;;;18.68;100.00
46347;BME280;32057;47.830;19.046;2023-06-10T06:45:13;99822.84;;;18.78;100.00
46347;BME280;32057;47.830;19.046;2023-06-10T06:47:38;99826.31;;;18.81;100.00
46347;BME280;32057;47.830;19.046;2023-06-10T06:50:04;99829.78;;;18.83;100.00
46347;BME280;32057;47.830;19.046;2023-06-10T06:52:29;99832.38;;;18.85;100.00
46347;BME280;32057;47.830;19.046;2023-06-10T06:54:54;99831.63;;;18.80;100.00
46347;BME280;32057;47.830;19.046;2023-06-10T06:57:20;99836.03;;;18.79;100.00
46347;BME280;32057;47.830;19.046;2023-06-10T06:59:46;99837.56;;;18.89;100.00
46347;BME280;32057;47.830;19.046;2023-06-10T07:02:11;99830.69;;;18.82;100.00
46347;BME280;32057;47.830;19.046;2023-06-10T07:04:36;99832.34;;;18.86;100.00
46347;BME280;32057;47.830;19.046;2023-06-10T07:07:02;99835.63;;;18.98;100.00
46347;BME280;32057;47.830;19.046;2023-06-10T07:09:27;99830.25;;;19.01;100.00
46347;BME280;32057;47.830;19.046;2023-06-10T07:11:53;99833.59;;;19.09;100.00
46347;BME280;32057;47.830;19.046;2023-06-10T07:14:18;99826.41;;;19.17;100.00
46347;BME280;32057;47.830;19.046;2023-06-10T07:16:44;99830.56;;;19.27;100.00
46347;BME280;32057;47.830;19.046;2023-06-10T07:19:11;99838.19;;;19.40;100.00
46347;BME280;32057;47.830;19.046;2023-06-10T07:21:36;99830.94;;;19.48;100.00
46347;BME280;32057;47.830;19.046;2023-06-10T07:24:03;99830.88;;;19.51;100.00
46347;BME280;32057;47.830;19.046;2023-06-10T07:26:28;99829.66;;;19.64;100.00
46347;BME280;32057;47.830;19.046;2023-06-10T07:28:54;99835.75;;;19.66;100.00
46347;BME280;32057;47.830;19.046;2023-06-10T07:31:19;99832.28;;;19.64;100.00
46347;BME280;32057;47.830;19.046;2023-06-10T07:33:46;99841.13;;;19.63;100.00
46347;BME280;32057;47.830;19.046;2023-06-10T07:36:11;99830.56;;;19.63;100.00
46347;BME280;32057;47.830;19.046;2023-06-10T07:38:37;99833.91;;;19.70;100.00
46347;BME280;32057;47.830;19.046;2023-06-10T07:41:02;99836.53;;;19.73;100.00
46347;BME280;32057;47.830;19.046;2023-06-10T07:43:28;99833.88;;;19.73;100.00
46347;BME280;32057;47.830;19.046;2023-06-10T07:45:53;99843.47;;;19.77;100.00
46347;BME280;32057;47.830;19.046;2023-06-10T07:48:18;99832.00;;;19.77;100.00
46347;BME280;32057;47.830;19.046;2023-06-10T07:50:44;99835.47;;;19.79;100.00
46347;BME280;32057;47.830;19.046;2023-06-10T07:53:09;99838.13;;;19.79;100.00
46347;BME280;32057;47.830;19.046;2023-06-10T07:55:35;99837.69;;;19.60;100.00
46347;BME280;32057;47.830;19.046;2023-06-10T07:58:00;99843.31;;;19.46;100.00
46347;BME280;32057;47.830;19.046;2023-06-10T08:00:26;99838.19;;;19.40;100.00
46347;BME280;32057;47.830;19.046;2023-06-10T08:02:51;99848.72;;;19.40;100.00
46347;BME280;32057;47.830;19.046;2023-06-10T08:05:17;99852.19;;;19.42;100.00
46347;BME280;32057;47.830;19.046;2023-06-10T08:07:42;99846.91;;;19.42;100.00
46347;BME280;32057;47.830;19.046;2023-06-10T08:10:08;99851.19;;;19.47;100.00
46347;BME280;32057;47.830;19.046;2023-06-10T08:12:34;99851.13;;;19.49;100.00
46347;BME280;32057;47.830;19.046;2023-06-10T08:15:00;99847.72;;;19.45;100.00
46347;BME280;32057;47.830;19.046;2023-06-10T08:17:26;99843.19;;;19.50;100.00
46347;BME280;32057;47.830;19.046;2023-06-10T08:19:52;99844.97;;;19.50;100.00
46347;BME280;32057;47.830;19.046;2023-06-10T08:22:17;99843.94;;;19.56;100.00
46347;BME280;32057;47.830;19.046;2023-06-10T08:24:43;99838.41;;;19.66;100.00
46347;BME280;32057;47.830;19.046;2023-06-10T08:27:08;99840.75;;;19.79;100.00
46347;BME280;32057;47.830;19.046;2023-06-10T08:29:34;99844.00;;;19.90;100.00
46347;BME280;32057;47.830;19.046;2023-06-10T08:32:00;99842.03;;;19.98;100.00
46347;BME280;32057;47.830;19.046;2023-06-10T08:34:25;99840.03;;;20.06;100.00
46347;BME280;32057;47.830;19.046;2023-06-10T08:36:50;99828.63;;;20.06;100.00
46347;BME280;32057;47.830;19.046;2023-06-10T08:39:21;99833.59;;;20.17;100.00
46347;BME280;32057;47.830;19.046;2023-06-10T08:44:31;99820.22;;;20.23;100.00
46347;BME280;32057;47.830;19.046;2023-06-10T08:47:06;99819.66;;;20.12;100.00
46347;BME280;32057;47.830;19.046;2023-06-10T08:49:38;99817.38;;;20.30;100.00
46347;BME280;32057;47.830;19.046;2023-06-10T08:52:05;99816.69;;;20.24;100.00
46347;BME280;32057;47.830;19.046;2023-06-10T08:54:33;99818.94;;;20.38;100.00
46347;BME280;32057;47.830;19.046;2023-06-10T08:57:04;99807.94;;;20.53;100.00
46347;BME280;32057;47.830;19.046;2023-06-10T08:59:31;99811.03;;;20.69;100.00
46347;BME280;32057;47.830;19.046;2023-06-10T09:01:57;99804.84;;;20.98;100.00
46347;BME280;32057;47.830;19.046;2023-06-10T09:04:24;99802.00;;;20.76;100.00
46347;BME280;32057;47.830;19.046;2023-06-10T09:06:50;99807.91;;;20.84;100.00
46347;BME280;32057;47.830;19.046;2023-06-10T09:09:16;99803.44;;;20.86;100.00
46347;BME280;32057;47.830;19.046;2023-06-10T09:11:43;99799.75;;;20.92;100.00
46347;BME280;32057;47.830;19.046;2023-06-10T09:14:09;99795.44;;;20.89;100.00
46347;BME280;32057;47.830;19.046;2023-06-10T09:16:35;99802.31;;;20.95;100.00
46347;BME280;32057;47.830;19.046;2023-06-10T09:19:01;99797.88;;;20.96;100.00
46347;BME280;32057;47.830;19.046;2023-06-10T09:21:32;99795.66;;;21.10;100.00
46347;BME280;32057;47.830;19.046;2023-06-10T09:23:58;99799.19;;;21.11;100.00
46347;BME280;32057;47.830;19.046;2023-06-10T09:26:28;99795.41;;;21.19;100.00
46347;BME280;32057;47.830;19.046;2023-06-10T09:29:02;99794.94;;;21.33;100.00
46347;BME280;32057;47.830;19.046;2023-06-10T09:31:27;99794.72;;;21.67;100.00
46347;BME280;32057;47.830;19.046;2023-06-10T09:33:53;99785.47;;;22.04;100.00
46347;BME280;32057;47.830;19.046;2023-06-10T09:36:25;99780.56;;;22.44;100.00
46347;BME280;32057;47.830;19.046;2023-06-10T09:38:50;99778.22;;;22.82;100.00
46347;BME280;32057;47.830;19.046;2023-06-10T09:41:16;99782.78;;;22.78;100.00
46347;BME280;32057;47.830;19.046;2023-06-10T09:43:43;99787.50;;;22.70;100.00
46347;BME280;32057;47.830;19.046;2023-06-10T09:46:20;99782.06;;;22.51;100.00
46347;BME280;32057;47.830;19.046;2023-06-10T09:48:47;99789.44;;;22.18;100.00
46347;BME280;32057;47.830;19.046;2023-06-10T09:51:14;99785.22;;;22.12;100.00
46347;BME280;32057;47.830;19.046;2023-06-10T09:53:40;99784.66;;;22.02;100.00
46347;BME280;32057;47.830;19.046;2023-06-10T09:56:05;99783.50;;;21.86;100.00
46347;BME280;32057;47.830;19.046;2023-06-10T09:58:36;99786.19;;;21.84;100.00
46347;BME280;32057;47.830;19.046;2023-06-10T10:01:10;99789.94;;;21.79;100.00
46347;BME280;32057;47.830;19.046;2023-06-10T10:06:11;99789.16;;;21.75;100.00
46347;BME280;32057;47.830;19.046;2023-06-10T10:08:37;99789.22;;;21.74;100.00
46347;BME280;32057;47.830;19.046;2023-06-10T10:11:03;99775.81;;;21.78;100.00
46347;BME280;32057;47.830;19.046;2023-06-10T10:13:29;99773.88;;;21.83;100.00
46347;BME280;32057;47.830;19.046;2023-06-10T10:15:59;99765.44;;;21.97;100.00
46347;BME280;32057;47.830;19.046;2023-06-10T10:18:29;99763.97;;;22.14;100.00
46347;BME280;32057;47.830;19.046;2023-06-10T10:20:57;99755.22;;;22.37;100.00
46347;BME280;32057;47.830;19.046;2023-06-10T10:23:31;99762.31;;;22.58;100.00
46347;BME280;32057;47.830;19.046;2023-06-10T10:26:04;99764.13;;;22.58;100.00
46347;BME280;32057;47.830;19.046;2023-06-10T10:28:48;99763.09;;;22.62;100.00
46347;BME280;32057;47.830;19.046;2023-06-10T10:31:18;99766.78;;;22.58;100.00
46347;BME280;32057;47.830;19.046;2023-06-10T10:34:15;99771.50;;;22.50;100.00
46347;BME280;32057;47.830;19.046;2023-06-10T10:36:42;99765.72;;;22.38;100.00
46347;BME280;32057;47.830;19.046;2023-06-10T10:39:08;99752.75;;;22.31;100.00
46347;BME280;32057;47.830;19.046;2023-06-10T10:41:36;99753.66;;;22.31;100.00
46347;BME280;32057;47.830;19.046;2023-06-10T10:44:02;99760.78;;;22.29;100.00
46347;BME280;32057;47.830;19.046;2023-06-10T10:46:30;99748.28;;;22.33;100.00
46347;BME280;32057;47.830;19.046;2023-06-10T10:48:56;99751.81;;;22.33;100.00
46347;BME280;32057;47.830;19.046;2023-06-10T10:51:23;99755.13;;;22.38;100.00
46347;BME280;32057;47.830;19.046;2023-06-10T10:54:10;99756.75;;;22.42;100.00
46347;BME280;32057;47.830;19.046;2023-06-10T10:56:35;99751.19;;;22.48;100.00
46347;BME280;32057;47.830;19.046;2023-06-10T10:59:03;99749.53;;;22.46;100.00
46347;BME280;32057;47.830;19.046;2023-06-10T11:01:40;99745.91;;;22.48;100.00
46347;BME280;32057;47.830;19.046;2023-06-10T11:04:07;99741.63;;;22.68;100.00
46347;BME280;32057;47.830;19.046;2023-06-10T11:06:33;99741.19;;;22.57;100.00
46347;BME280;32057;47.830;19.046;2023-06-10T11:08:58;99737.13;;;22.70;100.00
46347;BME280;32057;47.830;19.046;2023-06-10T11:11:27;99743.22;;;22.72;100.00
46347;BME280;32057;47.830;19.046;2023-06-10T11:16:29;99739.78;;;22.70;100.00
46347;BME280;32057;47.830;19.046;2023-06-10T11:18:55;99741.88;;;22.62;100.00
46347;BME280;32057;47.830;19.046;2023-06-10T11:21:24;99737.31;;;22.65;100.00
46347;BME280;32057;47.830;19.046;2023-06-10T11:23:50;99736.94;;;22.53;100.00
46347;BME280;32057;47.830;19.046;2023-06-10T11:31:23;99726.66;;;22.67;100.00
46347;BME280;32057;47.830;19.046;2023-06-10T11:33:55;99725.88;;;22.87;100.00
46347;BME280;32057;47.830;19.046;2023-06-10T11:36:24;99724.28;;;23.05;100.00
46347;BME280;32057;47.830;19.046;2023-06-10T11:38:56;99723.41;;;23.26;100.00
46347;BME280;32057;47.830;19.046;2023-06-10T11:41:24;99717.53;;;23.61;100.00
46347;BME280;32057;47.830;19.046;2023-06-10T11:43:52;99712.91;;;23.87;100.00
46347;BME280;32057;47.830;19.046;2023-06-10T11:46:17;99721.28;;;23.76;100.00
46347;BME280;32057;47.830;19.046;2023-06-10T11:48:56;99720.31;;;23.78;100.00
46347;BME280;32057;47.830;19.046;2023-06-10T11:51:25;99722.41;;;23.70;99.60
46347;BME280;32057;47.830;19.046;2023-06-10T11:53:52;99710.31;;;23.85;100.00
46347;BME280;32057;47.830;19.046;2023-06-10T11:56:21;99704.94;;;24.05;100.00
46347;BME280;32057;47.830;19.046;2023-06-10T11:59:01;99698.56;;;24.10;98.68
46347;BME280;32057;47.830;19.046;2023-06-10T12:01:31;99697.25;;;23.99;97.66
46347;BME280;32057;47.830;19.046;2023-06-10T12:09:04;99695.16;;;24.06;98.71
46347;BME280;32057;47.830;19.046;2023-06-10T12:11:30;99691.09;;;23.99;100.00
46347;BME280;32057;47.830;19.046;2023-06-10T12:13:56;99692.81;;;24.19;96.44
46347;BME280;32057;47.830;19.046;2023-06-10T12:16:22;99691.09;;;24.37;100.00
46347;BME280;32057;47.830;19.046;2023-06-10T12:18:47;99689.81;;;24.45;99.84
46347;BME280;32057;47.830;19.046;2023-06-10T12:21:20;99679.53;;;24.38;100.00
46347;BME280;32057;47.830;19.046;2023-06-10T12:24:09;99681.75;;;24.47;92.33
46347;BME280;32057;47.830;19.046;2023-06-10T12:29:02;99678.47;;;24.61;93.38
46347;BME280;32057;47.830;19.046;2023-06-10T12:31:27;99670.97;;;24.31;91.56
46347;BME280;32057;47.830;19.046;2023-06-10T12:34:07;99669.09;;;24.71;96.20
46347;BME280;32057;47.830;19.046;2023-06-10T12:36:33;99668.78;;;24.96;90.04
46347;BME280;32057;47.830;19.046;2023-06-10T12:39:03;99663.03;;;24.87;87.38
46347;BME280;32057;47.830;19.046;2023-06-10T12:41:29;99662.31;;;24.83;89.50
46347;BME280;32057;47.830;19.046;2023-06-10T12:43:54;99666.72;;;25.01;85.94
46347;BME280;32057;47.830;19.046;2023-06-10T12:46:19;99655.78;;;25.08;81.28
46347;BME280;32057;47.830;19.046;2023-06-10T12:48:51;99662.53;;;25.15;85.26
46347;BME280;32057;47.830;19.046;2023-06-10T12:51:17;99654.53;;;25.15;93.03
46347;BME280;32057;47.830;19.046;2023-06-10T12:53:43;99647.38;;;24.80;91.73
46347;BME280;32057;47.830;19.046;2023-06-10T12:56:09;99656.28;;;24.79;92.03
46347;BME280;32057;47.830;19.046;2023-06-10T12:58:35;99662.72;;;24.56;93.34
46347;BME280;32057;47.830;19.046;2023-06-10T13:01:00;99650.69;;;24.48;89.93